createdAt,value
2017-05-20T00:02:23.807Z,2.64
2017-05-20T00:04:49.652Z,2.32
2017-05-20T00:07:15.574Z,2.10
2017-05-20T00:09:41.807Z,2.16
2017-05-20T00:12:07.657Z,2.10
2017-05-20T00:14:33.529Z,2.72
2017-05-20T00:16:59.373Z,2.94
2017-05-20T00:19:25.234Z,2.46
2017-05-20T00:21:51.182Z,2.10
2017-05-20T00:24:17.031Z,2.18
2017-05-20T00:26:42.875Z,1.86
2017-05-20T00:29:08.722Z,2.16
2017-05-20T00:31:34.614Z,2.52
2017-05-20T00:34:00.594Z,1.62
2017-05-20T00:36:26.432Z,2.34
2017-05-20T00:38:52.286Z,2.22
2017-05-20T00:41:18.084Z,1.78
2017-05-20T00:43:43.917Z,2.16
2017-05-20T00:46:10.143Z,1.98
2017-05-20T00:48:35.952Z,1.80
2017-05-20T00:51:01.824Z,1.96
2017-05-20T00:53:27.732Z,2.02
2017-05-20T00:55:53.627Z,1.60
2017-05-20T00:58:19.670Z,1.88
2017-05-20T01:00:45.561Z,2.70
2017-05-20T01:03:11.403Z,2.94
2017-05-20T01:05:37.274Z,2.64
2017-05-20T01:08:03.110Z,2.22
2017-05-20T01:10:29.051Z,2.88
2017-05-20T01:12:54.884Z,1.92
2017-05-20T01:15:20.810Z,1.86
2017-05-20T01:17:46.701Z,1.96
2017-05-20T01:20:12.621Z,2.48
2017-05-20T01:22:38.622Z,2.00
2017-05-20T01:25:04.594Z,1.70
2017-05-20T01:27:30.391Z,1.88
2017-05-20T01:29:57.002Z,1.90
2017-05-20T01:32:22.855Z,1.84
2017-05-20T01:34:49.627Z,1.84
2017-05-20T01:37:15.503Z,1.72
2017-05-20T01:39:41.338Z,1.60
2017-05-20T01:42:07.930Z,1.60
2017-05-20T01:44:33.792Z,1.70
2017-05-20T01:46:59.756Z,1.40
2017-05-20T01:49:25.650Z,1.78
2017-05-20T01:51:51.499Z,2.04
2017-05-20T01:54:17.370Z,1.82
2017-05-20T01:56:43.222Z,2.22
2017-05-20T01:59:09.242Z,2.50
2017-05-20T02:01:35.079Z,1.60
2017-05-20T02:04:00.928Z,1.82
2017-05-20T02:06:26.801Z,1.88
2017-05-20T02:08:52.681Z,1.80
2017-05-20T02:11:18.594Z,1.70
2017-05-20T02:13:44.465Z,2.26
2017-05-20T02:16:10.337Z,2.10
2017-05-20T02:18:36.151Z,1.80
2017-05-20T02:21:01.983Z,1.74
2017-05-20T02:23:28.054Z,2.10
2017-05-20T02:25:53.976Z,1.90
2017-05-20T02:28:19.845Z,1.92
2017-05-20T02:30:45.735Z,1.78
2017-05-20T02:33:11.586Z,1.70
2017-05-20T02:35:37.530Z,1.82
2017-05-20T02:38:03.382Z,1.90
2017-05-20T02:40:29.230Z,1.94
2017-05-20T02:42:55.074Z,1.92
2017-05-20T02:45:20.973Z,1.78
2017-05-20T02:47:46.938Z,2.14
2017-05-20T02:50:12.817Z,2.08
2017-05-20T02:52:38.655Z,2.08
2017-05-20T02:55:04.514Z,1.60
2017-05-20T02:57:31.106Z,1.82
2017-05-20T02:59:57.085Z,1.88
2017-05-20T03:02:22.934Z,1.90
2017-05-20T03:04:48.902Z,1.92
2017-05-20T03:07:14.738Z,1.88
2017-05-20T03:09:40.592Z,1.96
2017-05-20T03:12:06.548Z,2.00
2017-05-20T03:14:32.390Z,2.06
2017-05-20T03:16:58.233Z,1.84
2017-05-20T03:19:24.084Z,1.96
2017-05-20T03:21:49.957Z,1.92
2017-05-20T03:24:15.911Z,2.00
2017-05-20T03:26:41.758Z,1.74
2017-05-20T03:29:07.665Z,2.46
2017-05-20T03:31:33.507Z,1.60
2017-05-20T03:33:59.393Z,3.16
2017-05-20T03:36:25.414Z,1.80
2017-05-20T03:38:51.407Z,1.62
2017-05-20T03:41:17.264Z,1.64
2017-05-20T03:43:43.122Z,1.76
2017-05-20T03:46:09.173Z,1.80
2017-05-20T03:48:35.205Z,1.70
2017-05-20T03:51:01.794Z,1.72
2017-05-20T03:53:27.686Z,1.62
2017-05-20T03:55:53.600Z,1.60
2017-05-20T03:58:19.494Z,2.22
2017-05-20T04:00:45.419Z,1.64
2017-05-20T04:03:11.269Z,1.82
2017-05-20T04:05:37.102Z,1.92
2017-05-20T04:08:02.985Z,1.70
2017-05-20T04:10:28.865Z,1.78
2017-05-20T04:12:54.851Z,2.00
2017-05-20T04:15:20.734Z,1.74
2017-05-20T04:17:46.598Z,1.80
2017-05-20T04:20:12.420Z,2.04
2017-05-20T04:22:38.278Z,1.98
2017-05-20T04:25:04.278Z,1.48
2017-05-20T04:27:30.134Z,1.78
2017-05-20T04:29:56.029Z,1.90
2017-05-20T04:32:21.881Z,1.56
2017-05-20T04:34:47.727Z,1.40
2017-05-20T04:37:13.784Z,1.56
2017-05-20T04:39:39.647Z,1.70
2017-05-20T04:42:05.537Z,1.40
2017-05-20T04:44:31.382Z,1.54
2017-05-20T04:46:57.231Z,1.90
2017-05-20T04:49:23.280Z,1.74
2017-05-20T04:51:49.163Z,1.66
2017-05-20T04:54:15.094Z,1.78
2017-05-20T04:56:41.687Z,2.66
2017-05-20T04:59:07.575Z,1.72
2017-05-20T05:01:33.490Z,1.58
2017-05-20T05:03:59.363Z,1.70
2017-05-20T05:06:25.258Z,1.44
2017-05-20T05:08:51.154Z,1.70
2017-05-20T05:11:16.999Z,1.62
2017-05-20T05:13:42.943Z,2.44
2017-05-20T05:16:08.806Z,3.98
2017-05-20T05:18:34.647Z,3.86
2017-05-20T05:21:00.499Z,3.74
2017-05-20T05:23:26.357Z,4.36
2017-05-20T05:25:53.025Z,5.04
2017-05-20T05:28:18.905Z,4.30
2017-05-20T05:30:44.765Z,5.10
2017-05-20T05:33:10.642Z,4.36
2017-05-20T05:35:36.476Z,4.80
2017-05-20T05:38:02.431Z,4.48
2017-05-20T05:40:28.309Z,5.04
2017-05-20T05:42:54.917Z,8.16
2017-05-20T05:45:20.796Z,7.08
2017-05-20T05:47:46.678Z,4.44
2017-05-20T05:50:12.623Z,3.98
2017-05-20T05:52:39.282Z,5.02
2017-05-20T05:55:05.180Z,3.86
2017-05-20T05:57:31.765Z,5.14
2017-05-20T05:59:57.618Z,4.16
2017-05-20T06:02:23.534Z,8.22
2017-05-20T06:04:49.406Z,3.80
2017-05-20T06:07:15.258Z,5.12
2017-05-20T06:09:41.107Z,4.84
2017-05-20T06:12:06.962Z,4.90
2017-05-20T06:14:32.881Z,4.20
2017-05-20T06:16:58.757Z,5.76
2017-05-20T06:19:24.599Z,6.06
2017-05-20T06:27:45.203Z,5.54
2017-05-20T06:30:11.053Z,5.56
2017-05-20T06:32:38.535Z,4.78
2017-05-20T06:35:05.190Z,6.74
2017-05-20T06:46:46.798Z,6.86
2017-05-20T06:49:12.674Z,5.72
2017-05-20T07:06:23.191Z,8.14
2017-05-20T07:08:49.102Z,19.50
2017-05-20T07:11:14.945Z,15.18
2017-05-20T07:13:40.873Z,5.98
2017-05-20T07:16:06.847Z,5.88
2017-05-20T07:18:32.691Z,11.74
2017-05-20T07:26:51.423Z,10.00
2017-05-20T07:29:17.262Z,11.10
2017-05-20T07:31:43.134Z,10.20
2017-05-20T07:34:09.729Z,8.12
2017-05-20T07:45:55.207Z,9.64
2017-05-20T07:48:21.112Z,7.80
2017-05-20T08:05:29.709Z,21.82
2017-05-20T08:25:34.598Z,8.20
2017-05-20T08:28:00.450Z,8.34
2017-05-20T08:30:26.497Z,4.72
2017-05-20T08:32:52.785Z,5.76
2017-05-20T08:35:18.602Z,6.76
2017-05-20T08:46:34.907Z,5.30
2017-05-20T08:49:00.921Z,9.10
2017-05-20T09:06:12.467Z,5.72
2017-05-20T09:08:38.362Z,7.36
2017-05-20T09:11:04.958Z,6.12
2017-05-20T09:13:32.084Z,7.32
2017-05-20T09:15:56.944Z,10.92
2017-05-20T09:18:23.619Z,7.10
2017-05-20T09:20:49.542Z,6.84
2017-05-20T09:26:12.394Z,10.06
2017-05-20T09:28:38.974Z,12.06
2017-05-20T09:31:04.848Z,8.96
2017-05-20T09:33:30.738Z,39.04
2017-05-20T09:35:56.653Z,32.20
2017-05-20T09:47:14.174Z,13.58
2017-05-20T09:49:40.025Z,12.62
2017-05-20T10:06:51.021Z,6.20
2017-05-20T10:09:17.016Z,7.22
2017-05-20T10:16:52.568Z,6.10
2017-05-20T10:19:31.571Z,7.48
2017-05-20T10:34:37.569Z,5.47
2017-05-20T10:37:03.411Z,5.08
2017-05-20T10:39:29.260Z,5.90
2017-05-20T10:41:55.110Z,5.92
2017-05-20T10:44:21.813Z,6.16
2017-05-20T10:46:47.681Z,6.42
2017-05-20T10:49:14.311Z,5.70
2017-05-20T11:09:22.211Z,8.40
2017-05-20T11:11:48.487Z,6.78
2017-05-20T11:14:14.339Z,5.72
2017-05-20T11:16:40.187Z,4.82
2017-05-20T11:19:06.070Z,5.02
2017-05-20T11:21:32.010Z,11.58
2017-05-20T11:29:51.687Z,8.14
2017-05-20T11:32:17.543Z,7.12
2017-05-20T11:34:43.431Z,6.50
2017-05-20T11:37:15.225Z,4.64
2017-05-20T11:39:41.489Z,5.52
2017-05-20T11:42:07.382Z,6.84
2017-05-20T11:44:33.355Z,4.30
2017-05-20T11:46:59.633Z,7.94
2017-05-20T11:49:25.479Z,9.04
2017-05-20T12:09:30.610Z,4.52
2017-05-20T12:11:56.994Z,8.10
2017-05-20T12:14:23.594Z,5.42
2017-05-20T12:16:49.445Z,5.02
2017-05-20T12:19:15.526Z,3.94
2017-05-20T12:21:41.376Z,3.92
2017-05-20T12:30:00.322Z,6.54
2017-05-20T12:32:26.534Z,4.22
2017-05-20T12:34:52.818Z,4.96
2017-05-20T12:43:17.833Z,2.86
2017-05-20T12:45:43.681Z,6.22
2017-05-20T12:48:09.556Z,2.42
2017-05-20T12:50:35.401Z,5.06
2017-05-20T13:10:41.883Z,5.86
2017-05-20T13:13:07.750Z,5.66
2017-05-20T13:15:33.878Z,3.25
2017-05-20T13:17:59.730Z,2.64
2017-05-20T13:20:25.572Z,2.48
2017-05-20T13:31:40.871Z,1.96
2017-05-20T13:34:08.609Z,3.18
2017-05-20T13:36:36.284Z,2.12
2017-05-20T13:50:42.847Z,6.64
2017-05-20T13:53:16.440Z,3.06
2017-05-20T13:55:44.170Z,3.08
2017-05-20T13:58:11.826Z,2.62
2017-05-20T14:00:39.537Z,3.32
2017-05-20T14:03:07.216Z,2.98
2017-05-20T14:06:37.736Z,5.18
2017-05-20T14:09:05.363Z,2.96
2017-05-20T14:11:32.980Z,2.88
2017-05-20T14:14:00.607Z,3.84
2017-05-20T14:16:28.214Z,2.50
2017-05-20T14:18:56.001Z,3.04
2017-05-20T14:21:23.610Z,2.94
2017-05-20T14:24:40.930Z,3.35
2017-05-20T14:27:08.627Z,2.50
2017-05-20T14:29:36.292Z,2.60
2017-05-20T14:32:03.946Z,3.04
2017-05-20T14:34:52.290Z,2.50
2017-05-20T14:37:18.267Z,2.40
2017-05-20T14:39:44.127Z,4.12
2017-05-20T14:42:10.422Z,5.02
2017-05-20T14:44:36.289Z,1.82
2017-05-20T14:47:02.892Z,2.16
2017-05-20T14:49:29.598Z,2.00
2017-05-20T14:51:55.455Z,1.54
2017-05-20T14:54:21.351Z,3.26
2017-05-20T14:56:47.223Z,2.14
2017-05-20T14:59:13.059Z,3.84
2017-05-20T15:01:39.226Z,1.74
2017-05-20T15:04:05.067Z,3.32
2017-05-20T15:06:30.946Z,2.62
2017-05-20T15:08:56.807Z,3.12
2017-05-20T15:11:22.695Z,3.54
2017-05-20T15:13:48.699Z,6.86
2017-05-20T15:16:15.312Z,4.40
2017-05-20T15:18:41.163Z,3.50
2017-05-20T15:21:07.023Z,4.80
2017-05-20T15:23:32.919Z,4.68
2017-05-20T15:25:58.771Z,2.88
2017-05-20T15:28:24.665Z,3.04
2017-05-20T15:30:50.518Z,5.44
2017-05-20T15:33:16.395Z,3.40
2017-05-20T15:35:42.659Z,2.52
2017-05-20T15:38:08.518Z,8.52
2017-05-20T15:40:34.363Z,3.18
2017-05-20T15:43:00.274Z,2.88
2017-05-20T15:45:26.850Z,2.66
2017-05-20T15:47:52.821Z,6.24
2017-05-20T15:50:18.669Z,2.38
2017-05-20T15:52:44.522Z,4.30
2017-05-20T15:55:10.779Z,2.30
2017-05-20T15:57:36.904Z,2.44
2017-05-20T16:00:04.018Z,2.78
2017-05-20T16:02:29.842Z,2.38
2017-05-20T16:04:55.694Z,2.38
2017-05-20T16:07:22.448Z,4.10
2017-05-20T16:09:48.286Z,2.44
2017-05-20T16:12:14.130Z,4.00
2017-05-20T16:14:39.978Z,2.62
2017-05-20T16:17:05.926Z,2.28
2017-05-20T16:19:31.814Z,2.16
2017-05-20T16:21:57.669Z,2.40
2017-05-20T16:24:23.506Z,2.20
2017-05-20T16:26:49.368Z,3.90
2017-05-20T16:29:15.327Z,4.80
2017-05-20T16:31:41.179Z,2.26
2017-05-20T16:34:07.058Z,3.92
2017-05-20T16:36:33.719Z,2.26
2017-05-20T16:38:59.571Z,2.82
2017-05-20T16:41:25.468Z,2.22
2017-05-20T16:43:52.781Z,2.06
2017-05-20T16:46:18.635Z,2.50
2017-05-20T16:48:44.498Z,2.64
2017-05-20T16:51:10.351Z,1.98
2017-05-20T16:53:36.213Z,1.98
2017-05-20T16:56:02.090Z,1.70
2017-05-20T16:58:28.010Z,1.64
2017-05-20T17:00:53.875Z,2.54
2017-05-20T17:03:19.763Z,1.70
2017-05-20T17:05:46.342Z,1.60
2017-05-20T17:08:18.050Z,2.80
2017-05-20T17:10:44.938Z,1.82
2017-05-20T17:13:10.930Z,1.88
2017-05-20T17:15:37.034Z,1.56
2017-05-20T17:18:02.935Z,2.60
2017-05-20T17:20:29.071Z,4.50
2017-05-20T17:22:55.183Z,2.58
2017-05-20T17:25:21.191Z,2.30
2017-05-20T17:27:47.201Z,2.48
2017-05-20T17:30:13.164Z,1.90
2017-05-20T17:32:39.558Z,1.52
2017-05-20T17:35:05.622Z,2.18
2017-05-20T17:37:31.815Z,2.82
2017-05-20T17:45:50.987Z,23.64
2017-05-20T17:48:16.833Z,2.60
2017-05-20T17:50:42.683Z,1.56
2017-05-20T17:55:45.501Z,1.98
2017-05-20T17:58:11.366Z,6.36
2017-05-20T18:00:37.298Z,3.34
2017-05-20T18:03:03.291Z,2.08
2017-05-20T18:05:29.249Z,1.46
2017-05-20T18:07:55.175Z,3.84
2017-05-20T18:10:21.058Z,4.96
2017-05-20T18:12:46.955Z,4.50
2017-05-20T18:15:12.846Z,4.28
2017-05-20T18:17:38.692Z,4.62
2017-05-20T18:20:04.553Z,4.22
2017-05-20T18:22:30.438Z,1.94
2017-05-20T18:24:56.286Z,4.12
2017-05-20T18:27:22.347Z,2.34
2017-05-20T18:29:48.238Z,3.62
2017-05-20T18:32:14.839Z,4.14
2017-05-20T18:34:40.714Z,3.26
2017-05-20T18:37:06.702Z,3.32
2017-05-20T18:39:32.567Z,3.90
2017-05-20T18:41:58.413Z,2.30
2017-05-20T18:44:24.505Z,3.40
2017-05-20T18:46:50.307Z,1.78
2017-05-20T18:49:16.194Z,2.16
2017-05-20T18:51:42.603Z,3.90
2017-05-20T18:54:08.915Z,3.10
2017-05-20T18:56:34.981Z,4.02
2017-05-20T18:59:00.865Z,4.80
2017-05-20T19:01:26.823Z,3.16
2017-05-20T19:03:53.270Z,3.32
2017-05-20T19:06:20.009Z,2.28
2017-05-20T19:08:45.915Z,3.98
2017-05-20T19:11:11.810Z,3.48
2017-05-20T19:13:37.670Z,3.18
2017-05-20T19:16:03.520Z,2.76
2017-05-20T19:18:29.366Z,1.58
2017-05-20T19:20:55.265Z,3.20
2017-05-20T19:23:21.202Z,4.20
2017-05-20T19:25:47.279Z,2.38
2017-05-20T19:28:13.177Z,1.60
2017-05-20T19:30:39.017Z,3.42
2017-05-20T19:33:05.615Z,2.80
2017-05-20T19:35:31.474Z,4.32
2017-05-20T19:37:57.472Z,4.44
2017-05-20T19:40:23.383Z,2.68
2017-05-20T19:42:49.226Z,1.88
2017-05-20T19:45:15.082Z,2.76
2017-05-20T19:47:40.961Z,3.94
2017-05-20T19:50:06.919Z,2.92
2017-05-20T19:52:32.751Z,4.04
2017-05-20T19:54:58.593Z,2.02
2017-05-20T19:57:24.438Z,1.70
2017-05-20T19:59:50.297Z,6.02
2017-05-20T20:02:16.162Z,1.56
2017-05-20T20:04:42.056Z,3.78
2017-05-20T20:07:08.049Z,3.52
2017-05-20T20:09:33.908Z,3.10
2017-05-20T20:11:59.756Z,2.44
2017-05-20T20:14:25.740Z,1.54
2017-05-20T20:16:51.682Z,7.14
2017-05-20T20:19:19.586Z,5.36
2017-05-20T20:21:45.506Z,3.34
2017-05-20T20:24:11.566Z,1.50
2017-05-20T20:26:37.403Z,3.66
2017-05-20T20:29:03.260Z,2.62
2017-05-20T20:31:29.192Z,1.36
2017-05-20T20:33:55.051Z,1.68
2017-05-20T20:36:21.094Z,2.10
2017-05-20T20:38:46.964Z,2.00
2017-05-20T20:41:12.863Z,3.82
2017-05-20T20:43:38.726Z,1.80
2017-05-20T20:46:04.599Z,3.44
2017-05-20T20:48:30.563Z,1.56
2017-05-20T20:50:57.478Z,3.42
2017-05-20T20:53:23.428Z,1.40
2017-05-20T20:55:49.263Z,2.12
2017-05-20T20:58:15.203Z,3.24
2017-05-20T21:00:41.164Z,2.24
2017-05-20T21:03:07.013Z,1.14
2017-05-20T21:05:32.826Z,1.68
2017-05-20T21:07:58.682Z,1.24
2017-05-20T21:10:25.267Z,2.38
2017-05-20T21:12:51.122Z,2.74
2017-05-20T21:15:17.116Z,1.88
2017-05-20T21:17:43.035Z,1.70
2017-05-20T21:20:08.958Z,3.18
2017-05-20T21:22:35.049Z,1.20
2017-05-20T21:25:00.858Z,2.64
2017-05-20T21:27:26.824Z,4.18
2017-05-20T21:29:52.741Z,3.26
2017-05-20T21:32:18.642Z,1.40
2017-05-20T21:34:44.498Z,1.46
2017-05-20T21:37:10.337Z,1.76
2017-05-20T21:39:36.230Z,2.44
2017-05-20T21:42:02.093Z,1.52
2017-05-20T21:44:27.977Z,3.40
2017-05-20T21:46:53.842Z,3.10
2017-05-20T21:49:20.502Z,2.72
2017-05-20T21:51:46.347Z,2.78
2017-05-20T21:54:12.197Z,3.56
2017-05-20T21:56:38.786Z,1.36
2017-05-20T21:59:04.825Z,1.80
2017-05-20T22:01:30.694Z,3.04
2017-05-20T22:03:56.586Z,1.40
2017-05-20T22:06:22.433Z,1.62
2017-05-20T22:08:48.492Z,2.02
2017-05-20T22:11:14.427Z,1.32
2017-05-20T22:13:40.306Z,2.92
2017-05-20T22:16:06.167Z,1.82
2017-05-20T22:18:32.007Z,2.52
2017-05-20T22:20:57.851Z,4.48
2017-05-20T22:23:23.759Z,2.82
2017-05-20T22:25:49.650Z,3.46
2017-05-20T22:28:15.591Z,4.02
2017-05-20T22:30:41.437Z,2.18
2017-05-20T22:33:07.290Z,4.90
2017-05-20T22:35:33.126Z,6.18
2017-05-20T22:37:58.978Z,2.62
2017-05-20T22:40:24.976Z,1.64
2017-05-20T22:42:50.804Z,2.58
2017-05-20T22:45:16.697Z,2.08
2017-05-20T22:47:42.544Z,2.06
2017-05-20T22:50:08.391Z,1.64
2017-05-20T22:52:34.335Z,3.62
2017-05-20T22:55:00.165Z,2.16
2017-05-20T22:57:26.790Z,2.94
2017-05-20T22:59:52.682Z,1.92
2017-05-20T23:02:18.526Z,1.46
2017-05-20T23:04:45.154Z,1.84
2017-05-20T23:07:10.998Z,1.60
2017-05-20T23:09:37.003Z,4.12
2017-05-20T23:12:02.880Z,1.50
2017-05-20T23:14:28.767Z,1.60
2017-05-20T23:16:54.629Z,1.60
2017-05-20T23:19:20.476Z,1.88
2017-05-20T23:21:46.460Z,1.30
2017-05-20T23:24:12.366Z,1.76
2017-05-20T23:26:38.228Z,2.42
2017-05-20T23:29:04.078Z,1.40
2017-05-20T23:31:29.937Z,1.38
2017-05-20T23:33:55.831Z,1.74
2017-05-20T23:36:21.731Z,2.30
2017-05-20T23:38:47.658Z,1.30
2017-05-20T23:41:13.508Z,1.64
2017-05-20T23:43:39.406Z,1.44
2017-05-20T23:46:05.258Z,1.30
2017-05-20T23:48:31.103Z,3.64
2017-05-20T23:50:57.024Z,1.50
2017-05-20T23:53:22.908Z,1.48
2017-05-20T23:55:48.810Z,1.68
2017-05-20T23:58:15.391Z,2.04
